Météo Nord-Pas-de-Calais   La météo au plus près de chez vous

Station météorologique

Observations météo à Avord (18092)

18092001 175 m Dernier relevé à 20:48
24.2°C
Humidité 48 % Vent 12.6 km/h 1021.8 hPa

Journée consultée

Jeudi 3 Septembre 2026

Synthèse de la journée

Périodes de référence en UTC

Température maximale

28.6°C

à 18:00

06h 06h

Température minimale

12°C

à 07:00

18h 18h

Rafale maximale

30 km/h

à 16:12

00h 00h

Précipitations

0 mm

Cumul quotidien

06h 06h

Graphiques de la journée

Heure locale Réduire

Données détaillées

Relevés météo

Pas de 6 minutes Afficher les relevés infra-horaires
Relevés météo détaillés à Avord pour le Jeudi 3 Septembre 2026
Heure Température °C Point de rosée °C Humidité % Vent moyen (raf.), km/h Précipitations mm Température à 10 cm °C Température à 20 cm °C Température à 50 cm °C Température à 100 cm °C Visibilité m Pression hPa
20:48 24.2 °C 15.4 °C 58 % 8 km/h (10 km/h) 0 mm0 mm 23.3 °C 22.4 °C 21.4 °C 21.2 °C 60000 m 1022.2 hPa
20:42 24.1 °C 15 °C 57 % 7 km/h (9 km/h) 0 mm0 mm 23.3 °C 22.4 °C 21.4 °C 21.2 °C 60000 m 1022.2 hPa
20:36 24.5 °C 15.1 °C 56 % 8 km/h (11 km/h) 0 mm0 mm 23.3 °C 22.4 °C 21.5 °C 21.2 °C 60000 m 1022.2 hPa
20:30 25 °C 15.3 °C 55 % 9 km/h (11 km/h) 0 mm0 mm 23.3 °C 22.4 °C 21.4 °C 21.2 °C 60000 m 1022.1 hPa
20:24 25 °C 15 °C 54 % 9 km/h (13 km/h) 0 mm0 mm 23.3 °C 22.4 °C 21.5 °C 21.2 °C 60000 m 1022 hPa
20:18 25.6 °C 15.3 °C 53 % 10 km/h (13 km/h) 0 mm0 mm 23.3 °C 22.3 °C 21.4 °C 21.2 °C 60000 m 1022 hPa
20:12 26.2 °C 15.3 °C 51 % 11 km/h (15 km/h) 0 mm0 mm 23.3 °C 22.3 °C 21.4 °C 21.2 °C 60000 m 1022 hPa
20:06 26.3 °C 15 °C 50 % 12 km/h (16 km/h) 0 mm0 mm 23.3 °C 22.3 °C 21.4 °C 21.2 °C 60000 m 1021.8 hPa
20:00 26.6 °C 15 °C 49 % 10 km/h (14 km/h) 0 mm0 mm 23.3 °C 22.3 °C 21.4 °C 21.2 °C 60000 m 1021.8 hPa
19:54 26.8 °C 15.2 °C 49 % 12 km/h (18 km/h) 0 mm0 mm 23.3 °C 22.3 °C 21.4 °C 21.2 °C 60000 m 1021.8 hPa
19:48 26.9 °C 15 °C 48 % 13 km/h (18 km/h) 0 mm0 mm 23.3 °C 22.3 °C 21.4 °C 21.2 °C 56850 m 1021.8 hPa
19:42 27.1 °C 14.8 °C 47 % 13 km/h (17 km/h) 0 mm0 mm 23.3 °C 22.2 °C 21.4 °C 21.2 °C 55270 m 1021.8 hPa
19:36 27.2 °C 14.9 °C 47 % 13 km/h (17 km/h) 0 mm0 mm 23.3 °C 22.2 °C 21.4 °C 21.2 °C 55270 m 1021.8 hPa
19:30 27.4 °C 14.8 °C 46 % 13 km/h (18 km/h) 0 mm0 mm 23.3 °C 22.2 °C 21.4 °C 21.2 °C 53910 m 1021.9 hPa
19:24 27.6 °C 14.6 °C 45 % 13 km/h (20 km/h) 0 mm0 mm 23.2 °C 22.2 °C 21.4 °C 21.2 °C 58330 m 1021.9 hPa
19:18 27.5 °C 14.2 °C 44 % 14 km/h (20 km/h) 0 mm0 mm 23.2 °C 22.2 °C 21.4 °C 21.2 °C 58330 m 1021.8 hPa
19:12 27.7 °C 14 °C 43 % 15 km/h (22 km/h) 0 mm0 mm 23.2 °C 22.2 °C 21.4 °C 21.2 °C 59450 m 1021.9 hPa
19:06 27.9 °C 13.8 °C 42 % 15 km/h (22 km/h) 0 mm0 mm 23.2 °C 22.2 °C 21.5 °C 21.2 °C 58760 m 1021.8 hPa
19:00 28 °C 13.1 °C 40 % 15 km/h (21 km/h) 0 mm0 mm 23.2 °C 22.2 °C 21.5 °C 21.2 °C 57340 m 1021.8 hPa
18:54 28 °C 12.8 °C 39 % 16 km/h (21 km/h) 0 mm0 mm 23.2 °C 22.1 °C 21.4 °C 21.2 °C 58750 m 1021.9 hPa
18:48 27.9 °C 12.7 °C 39 % 16 km/h (22 km/h) 0 mm0 mm 23.1 °C 22.1 °C 21.4 °C 21.2 °C 59820 m 1021.9 hPa
18:42 28 °C 13.5 °C 41 % 16 km/h (26 km/h) 0 mm0 mm 23.1 °C 22.1 °C 21.4 °C 21.2 °C 58890 m 1021.7 hPa
18:36 28.1 °C 13.6 °C 41 % 16 km/h (26 km/h) 0 mm0 mm 23.1 °C 22.1 °C 21.5 °C 21.2 °C 60000 m 1021.8 hPa
18:30 28.1 °C 13.2 °C 40 % 16 km/h (22 km/h) 0 mm0 mm 23.1 °C 22 °C 21.4 °C 21.2 °C 60000 m 1021.8 hPa
18:24 28.1 °C 13.2 °C 40 % 17 km/h (22 km/h) 0 mm0 mm 23.1 °C 22 °C 21.5 °C 21.2 °C 60000 m 1021.8 hPa
18:18 28.2 °C 12.9 °C 39 % 18 km/h (24 km/h) 0 mm0 mm 23 °C 22 °C 21.4 °C 21.2 °C 60000 m 1021.8 hPa
18:12 28.3 °C 13.4 °C 40 % 18 km/h (29 km/h) 0 mm0 mm 23 °C 22 °C 21.5 °C 21.2 °C 60000 m 1021.8 hPa
18:06 28.4 °C 13.5 °C 40 % 13 km/h (29 km/h) 0 mm0 mm 23 °C 21.9 °C 21.5 °C 21.2 °C 60000 m 1021.8 hPa
18:00 28.1 °C 13.2 °C 40 % 13 km/h (22 km/h) 0 mm0 mm 22.9 °C 21.9 °C 21.5 °C 21.2 °C 60000 m 1021.9 hPa
17:54 28.2 °C 12.9 °C 39 % 16 km/h (25 km/h) 0 mm0 mm 22.9 °C 21.9 °C 21.5 °C 21.2 °C 59160 m 1021.9 hPa
17:48 28.3 °C 13.8 °C 41 % 13 km/h (23 km/h) 0 mm0 mm 22.8 °C 21.9 °C 21.5 °C 21.2 °C 56890 m 1021.9 hPa
17:42 28.2 °C 12.9 °C 39 % 14 km/h (22 km/h) 0 mm0 mm 22.8 °C 21.8 °C 21.5 °C 21.2 °C 57710 m 1022 hPa
17:36 28.3 °C 13.8 °C 41 % 14 km/h (28 km/h) 0 mm0 mm 22.8 °C 21.8 °C 21.4 °C 21.2 °C 60000 m 1022.1 hPa
17:30 28.4 °C 14.2 °C 42 % 14 km/h (28 km/h) 0 mm0 mm 22.7 °C 21.8 °C 21.5 °C 21.2 °C 59940 m 1022.2 hPa
17:24 28.4 °C 13.9 °C 41 % 13 km/h (22 km/h) 0 mm0 mm 22.7 °C 21.8 °C 21.5 °C 21.2 °C 52440 m 1022.2 hPa
17:18 28.5 °C 14 °C 41 % 15 km/h (23 km/h) 0 mm0 mm 22.7 °C 21.7 °C 21.5 °C 21.2 °C 48950 m 1022.2 hPa
17:12 28.5 °C 14.3 °C 42 % 15 km/h (23 km/h) 0 mm0 mm 22.6 °C 21.7 °C 21.4 °C 21.2 °C 57980 m 1022.3 hPa
17:06 28.1 °C 14 °C 42 % 15 km/h (23 km/h) 0 mm0 mm 22.6 °C 21.7 °C 21.5 °C 21.2 °C 60000 m 1022.3 hPa
17:00 27.9 °C 14.2 °C 43 % 13 km/h (25 km/h) 0 mm0 mm 22.5 °C 21.7 °C 21.5 °C 21.2 °C 58180 m 1022.5 hPa
16:54 27.7 °C 14 °C 43 % 14 km/h (27 km/h) 0 mm0 mm 22.5 °C 21.7 °C 21.5 °C 21.2 °C 60000 m 1022.5 hPa
16:48 28.1 °C 14.3 °C 43 % 19 km/h (27 km/h) 0 mm0 mm 22.5 °C 21.6 °C 21.5 °C 21.2 °C 60000 m 1022.5 hPa
16:42 27.9 °C 13.8 °C 42 % 18 km/h (25 km/h) 0 mm0 mm 22.4 °C 21.6 °C 21.5 °C 21.2 °C 59860 m 1022.6 hPa
16:36 27.9 °C 14.5 °C 44 % 14 km/h (22 km/h) 0 mm0 mm 22.3 °C 21.6 °C 21.5 °C 21.2 °C 59760 m 1022.6 hPa
16:30 27.9 °C 14.5 °C 44 % 13 km/h (22 km/h) 0 mm0 mm 22.3 °C 21.5 °C 21.5 °C 21.2 °C 59980 m 1022.6 hPa
16:24 27.9 °C 14.2 °C 43 % 13 km/h (22 km/h) 0 mm0 mm 22.3 °C 21.5 °C 21.5 °C 21.2 °C 59820 m 1022.6 hPa
16:18 27.9 °C 14.9 °C 45 % 17 km/h (27 km/h) 0 mm0 mm 22.2 °C 21.5 °C 21.5 °C 21.2 °C 59820 m 1022.6 hPa
16:12 27.8 °C 14.4 °C 44 % 15 km/h (30 km/h) 0 mm0 mm 22.2 °C 21.5 °C 21.5 °C 21.2 °C 60000 m 1022.7 hPa
16:06 27.8 °C 14.8 °C 45 % 14 km/h (27 km/h) 0 mm0 mm 22.1 °C 21.5 °C 21.5 °C 21.2 °C 60000 m 1022.7 hPa
16:00 27.5 °C 15.2 °C 47 % 15 km/h (27 km/h) 0 mm0 mm 22.1 °C 21.4 °C 21.5 °C 21.2 °C 60000 m 1022.7 hPa
15:54 27.3 °C 14.7 °C 46 % 16 km/h (27 km/h) 0 mm0 mm 22 °C 21.4 °C 21.5 °C 21.2 °C 60000 m 1022.8 hPa
15:48 27.6 °C 14.9 °C 46 % 15 km/h (22 km/h) 0 mm0 mm 22 °C 21.4 °C 21.5 °C 21.2 °C 60000 m 1022.8 hPa
15:42 27.3 °C 15 °C 47 % 18 km/h (25 km/h) 0 mm0 mm 21.9 °C 21.4 °C 21.5 °C 21.2 °C 56410 m 1022.9 hPa
15:36 27.5 °C 15.2 °C 47 % 14 km/h (27 km/h) 0 mm0 mm 21.9 °C 21.3 °C 21.5 °C 21.2 °C 50910 m 1022.9 hPa
15:30 27 °C 14.7 °C 47 % 12 km/h (22 km/h) 0 mm0 mm 21.8 °C 21.3 °C 21.5 °C 21.2 °C 50100 m 1022.9 hPa
15:24 27.2 °C 14.9 °C 47 % 13 km/h (22 km/h) 0 mm0 mm 21.8 °C 21.3 °C 21.5 °C 21.2 °C 50470 m 1022.9 hPa
15:18 27 °C 15.1 °C 48 % 13 km/h (21 km/h) 0 mm0 mm 21.7 °C 21.3 °C 21.5 °C 21.2 °C 50580 m 1022.9 hPa
15:12 27 °C 14.7 °C 47 % 13 km/h (23 km/h) 0 mm0 mm 21.7 °C 21.3 °C 21.5 °C 21.2 °C 51500 m 1023 hPa
15:06 26.7 °C 14.8 °C 48 % 16 km/h (27 km/h) 0 mm0 mm 21.6 °C 21.2 °C 21.5 °C 21.2 °C 48930 m 1023 hPa
15:00 26.8 °C 15.2 °C 49 % 14 km/h (27 km/h) 0 mm0 mm 21.6 °C 21.2 °C 21.5 °C 21.2 °C 44530 m 1023.1 hPa
14:54 26.5 °C 15.5 °C 51 % 12 km/h (19 km/h) 0 mm0 mm 21.5 °C 21.2 °C 21.5 °C 21.2 °C 44460 m 1023.2 hPa
14:48 26.4 °C 15.1 °C 50 % 17 km/h (27 km/h) 0 mm0 mm 21.5 °C 21.2 °C 21.5 °C 21.2 °C 44730 m 1023.2 hPa
14:42 26.6 °C 15.6 °C 51 % 16 km/h (27 km/h) 0 mm0 mm 21.4 °C 21.2 °C 21.5 °C 21.2 °C 42440 m 1023.1 hPa
14:36 26 °C 15.1 °C 51 % 12 km/h (21 km/h) 0 mm0 mm 21.4 °C 21.2 °C 21.6 °C 21.2 °C 42120 m 1023.2 hPa
14:30 26.1 °C 14.9 °C 50 % 17 km/h (25 km/h) 0 mm0 mm 21.3 °C 21.2 °C 21.5 °C 21.2 °C 43310 m 1023.4 hPa
14:24 26.2 °C 15.3 °C 51 % 14 km/h (25 km/h) 0 mm0 mm 21.3 °C 21.1 °C 21.5 °C 21.2 °C 42350 m 1023.4 hPa
14:18 25.8 °C 14.9 °C 51 % 14 km/h (28 km/h) 0 mm0 mm 21.2 °C 21.1 °C 21.5 °C 21.2 °C 41770 m 1023.5 hPa
14:12 25.9 °C 15 °C 51 % 17 km/h (28 km/h) 0 mm0 mm 21.2 °C 21.1 °C 21.6 °C 21.2 °C 42270 m 1023.5 hPa
14:06 25.3 °C 14.7 °C 52 % 16 km/h (26 km/h) 0 mm0 mm 21.2 °C 21 °C 21.5 °C 21.2 °C 43420 m 1023.7 hPa
14:00 25.3 °C 14.4 °C 51 % 15 km/h (24 km/h) 0 mm0 mm 21.1 °C 21 °C 21.5 °C 21.2 °C 44240 m 1023.8 hPa
13:54 25.5 °C 14.6 °C 51 % 14 km/h (23 km/h) 0 mm0 mm 21 °C 21 °C 21.5 °C 21.2 °C 44870 m 1023.7 hPa
13:48 24.9 °C 14.1 °C 51 % 15 km/h (28 km/h) 0 mm0 mm 21 °C 21 °C 21.5 °C 21.2 °C 45330 m 1023.7 hPa
13:42 25.4 °C 14.2 °C 50 % 14 km/h (28 km/h) 0 mm0 mm 21 °C 21 °C 21.5 °C 21.2 °C 46200 m 1023.6 hPa
13:36 24.7 °C 13.6 °C 50 % 11 km/h (19 km/h) 0 mm0 mm 20.9 °C 21 °C 21.5 °C 21.2 °C 47450 m 1023.7 hPa
13:30 24.6 °C 13.5 °C 50 % 14 km/h (26 km/h) 0 mm0 mm 20.9 °C 21 °C 21.5 °C 21.2 °C 48090 m 1023.8 hPa
13:24 25 °C 14.2 °C 51 % 13 km/h (26 km/h) 0 mm0 mm 20.8 °C 21 °C 21.6 °C 21.2 °C 46930 m 1023.8 hPa
13:18 24.3 °C 13.2 °C 50 % 14 km/h (24 km/h) 0 mm0 mm 20.8 °C 21 °C 21.6 °C 21.2 °C 46580 m 1023.8 hPa
13:12 24.8 °C 13.7 °C 50 % 14 km/h (24 km/h) 0 mm0 mm 20.8 °C 20.9 °C 21.6 °C 21.2 °C 47250 m 1023.8 hPa
13:06 24.3 °C 13.5 °C 51 % 14 km/h (28 km/h) 0 mm0 mm 20.7 °C 20.9 °C 21.5 °C 21.2 °C 47490 m 1023.9 hPa
13:00 23.8 °C 13.1 °C 51 % 15 km/h (28 km/h) 0 mm0 mm 20.7 °C 20.9 °C 21.5 °C 21.2 °C 48550 m 1023.9 hPa
12:54 23.9 °C 13.1 °C 51 % 15 km/h (24 km/h) 0 mm0 mm 20.6 °C 20.9 °C 21.6 °C 21.2 °C 50210 m 1024 hPa
12:48 23.9 °C 12.8 °C 50 % 15 km/h (24 km/h) 0 mm0 mm 20.6 °C 20.9 °C 21.6 °C 21.2 °C 50420 m 1024.2 hPa
12:42 24.1 °C 13 °C 50 % 17 km/h (26 km/h) 0 mm0 mm 20.5 °C 20.9 °C 21.6 °C 21.2 °C 50860 m 1024.3 hPa
12:36 23.9 °C 12.8 °C 50 % 15 km/h (26 km/h) 0 mm0 mm 20.5 °C 20.9 °C 21.5 °C 21.2 °C 52650 m 1024.4 hPa
12:30 23.5 °C 13.4 °C 53 % 13 km/h (21 km/h) 0 mm0 mm 20.5 °C 20.9 °C 21.6 °C 21.2 °C 54080 m 1024.5 hPa
12:24 23.5 °C 13.1 °C 52 % 16 km/h (22 km/h) 0 mm0 mm 20.5 °C 20.9 °C 21.5 °C 21.2 °C 55270 m 1024.5 hPa
12:18 23.4 °C 13 °C 52 % 15 km/h (23 km/h) 0 mm0 mm 20.4 °C 20.9 °C 21.5 °C 21.2 °C 55940 m 1024.6 hPa
12:12 23.1 °C 13.3 °C 54 % 17 km/h (28 km/h) 0 mm0 mm 20.4 °C 20.9 °C 21.6 °C 21.2 °C 56690 m 1024.6 hPa
12:06 23.2 °C 13.4 °C 54 % 15 km/h (28 km/h) 0 mm0 mm 20.4 °C 20.9 °C 21.6 °C 21.2 °C 58710 m 1024.6 hPa
12:00 22.7 °C 13.2 °C 55 % 15 km/h (26 km/h) 0 mm0 mm 20.3 °C 20.9 °C 21.5 °C 21.2 °C 59890 m 1024.7 hPa
11:54 22.6 °C 13.4 °C 56 % 17 km/h (26 km/h) 0 mm0 mm 20.4 °C 20.9 °C 21.5 °C 21.2 °C 60000 m 1024.7 hPa
11:48 22.5 °C 13.3 °C 56 % 18 km/h (28 km/h) 0 mm0 mm 20.3 °C 20.9 °C 21.6 °C 21.2 °C 60000 m 1024.9 hPa
11:42 22.5 °C 13.3 °C 56 % 18 km/h (28 km/h) 0 mm0 mm 20.3 °C 20.9 °C 21.5 °C 21.2 °C 60000 m 1024.9 hPa
11:36 21.9 °C 13 °C 57 % 17 km/h (25 km/h) 0 mm0 mm 20.2 °C 20.9 °C 21.6 °C 21.2 °C 60000 m 1024.9 hPa
11:30 21.9 °C 13 °C 57 % 18 km/h (25 km/h) 0 mm0 mm 20.2 °C 20.9 °C 21.6 °C 21.2 °C 60000 m 1024.9 hPa
11:24 21.8 °C 13.7 °C 60 % 16 km/h (24 km/h) 0 mm0 mm 20.2 °C 20.9 °C 21.5 °C 21.2 °C 60000 m 1024.9 hPa
11:18 21.5 °C 13.4 °C 60 % 14 km/h (25 km/h) 0 mm0 mm 20.2 °C 21 °C 21.6 °C 21.2 °C 60000 m 1024.8 hPa
11:12 21.3 °C 13 °C 59 % 14 km/h (25 km/h) 0 mm0 mm 20.2 °C 21 °C 21.6 °C 21.2 °C 60000 m 1024.9 hPa
11:06 21.1 °C 13.3 °C 61 % 14 km/h (22 km/h) 0 mm0 mm 20.1 °C 21 °C 21.6 °C 21.2 °C 60000 m 1025 hPa
11:00 20.9 °C 13.3 °C 62 % 13 km/h (22 km/h) 0 mm0 mm 20.1 °C 21 °C 21.6 °C 21.2 °C 60000 m 1025 hPa
10:54 20.9 °C 13.3 °C 62 % 11 km/h (22 km/h) 0 mm0 mm 20.1 °C 21 °C 21.6 °C 21.2 °C 60000 m 1025 hPa
10:48 20.8 °C 14 °C 65 % 11 km/h (19 km/h) 0 mm0 mm 20.1 °C 21 °C 21.6 °C 21.2 °C 60000 m 1024.9 hPa
10:42 20.2 °C 13.6 °C 66 % 12 km/h (19 km/h) 0 mm0 mm 20.1 °C 21 °C 21.5 °C 21.2 °C 60000 m 1025 hPa
10:36 20.2 °C 13.9 °C 67 % 12 km/h (19 km/h) 0 mm0 mm 20.1 °C 21 °C 21.6 °C 21.2 °C 60000 m 1025 hPa
10:30 19.9 °C 13.8 °C 68 % 13 km/h (19 km/h) 0 mm0 mm 20.1 °C 21 °C 21.6 °C 21.2 °C 60000 m 1025.1 hPa
10:24 19.5 °C 13.7 °C 69 % 12 km/h (18 km/h) 0 mm0 mm 20.1 °C 21 °C 21.5 °C 21.2 °C 19560 m 1025 hPa
10:18 19.3 °C 13.7 °C 70 % 12 km/h (17 km/h) 0 mm0 mm 20 °C 21 °C 21.6 °C 21.2 °C 19560 m 1025 hPa
10:12 19.1 °C 13.7 °C 71 % 13 km/h (18 km/h) 0 mm0 mm 20 °C 21.1 °C 21.6 °C 21.2 °C 60000 m 1025 hPa
10:06 18.9 °C 13.7 °C 72 % 13 km/h (17 km/h) 0 mm0 mm 20 °C 21 °C 21.6 °C 21.2 °C 60000 m 1025 hPa
10:00 18.7 °C 13.5 °C 72 % 14 km/h (21 km/h) 0 mm0 mm 20 °C 21.1 °C 21.6 °C 21.2 °C 60000 m 1025 hPa
09:54 18.5 °C 13.6 °C 73 % 14 km/h (21 km/h) 0 mm0 mm 20 °C 21.1 °C 21.6 °C 21.2 °C 60000 m 1025.1 hPa
09:48 18.4 °C 13.7 °C 74 % 14 km/h (19 km/h) 0 mm0 mm 20 °C 21.1 °C 21.6 °C 21.2 °C 60000 m 1025.1 hPa
09:42 18 °C 13.1 °C 73 % 15 km/h (19 km/h) 0 mm0 mm 20 °C 21.1 °C 21.6 °C 21.2 °C 60000 m 1025 hPa
09:36 17.9 °C 13.4 °C 75 % 13 km/h (18 km/h) 0 mm0 mm 20 °C 21.1 °C 21.6 °C 21.2 °C 60000 m 1025 hPa
09:30 17.8 °C 13.7 °C 77 % 13 km/h (17 km/h) 0 mm0 mm 20 °C 21.1 °C 21.6 °C 21.2 °C 60000 m 1025 hPa
09:24 17.4 °C 13.5 °C 78 % 13 km/h (17 km/h) 0 mm0 mm 20 °C 21.2 °C 21.6 °C 21.2 °C 60000 m 1025 hPa
09:18 17.3 °C 13.8 °C 80 % 13 km/h (17 km/h) 0 mm0 mm 20 °C 21.2 °C 21.6 °C 21.2 °C 60000 m 1024.9 hPa
09:12 16.9 °C 13.4 °C 80 % 13 km/h (17 km/h) 0 mm0 mm 20 °C 21.2 °C 21.6 °C 21.2 °C 60000 m 1024.9 hPa
09:06 16.6 °C 13.3 °C 81 % 12 km/h (17 km/h) 0 mm0 mm 20.1 °C 21.2 °C 21.6 °C 21.2 °C 60000 m 1024.9 hPa
09:00 16.4 °C 13.3 °C 82 % 12 km/h (16 km/h) 0 mm0 mm 20.1 °C 21.2 °C 21.6 °C 21.2 °C 59180 m 1024.9 hPa
08:54 16.2 °C 13.3 °C 83 % 12 km/h (16 km/h) 0 mm0 mm 20.1 °C 21.2 °C 21.6 °C 21.2 °C 59180 m 1024.8 hPa
08:48 15.9 °C 13.2 °C 84 % 12 km/h (16 km/h) 0 mm0 mm 20.1 °C 21.2 °C 21.6 °C 21.2 °C 53570 m 1024.8 hPa
08:42 15.5 °C 12.8 °C 84 % 12 km/h (15 km/h) 0 mm0 mm 20.1 °C 21.2 °C 21.6 °C 21.2 °C 43070 m 1024.9 hPa
08:36 15.3 °C 12.8 °C 85 % 9 km/h (13 km/h) 0 mm0 mm 20.1 °C 21.3 °C 21.6 °C 21.2 °C 48590 m 1024.9 hPa
08:30 15.1 °C 12.8 °C 86 % 9 km/h (12 km/h) 0 mm0 mm 20.1 °C 21.3 °C 21.6 °C 21.2 °C 51930 m 1024.8 hPa
08:24 14.8 °C 12.8 °C 88 % 8 km/h (10 km/h) 0 mm0 mm 20.2 °C 21.3 °C 21.6 °C 21.2 °C 55010 m 1024.9 hPa
08:18 14.5 °C 12.5 °C 88 % 7 km/h (10 km/h) 0 mm0 mm 20.2 °C 21.3 °C 21.6 °C 21.2 °C 57890 m 1025.1 hPa
08:12 14.3 °C 12.5 °C 89 % 7 km/h (10 km/h) 0 mm0 mm 20.2 °C 21.3 °C 21.6 °C 21.2 °C 59610 m 1024.9 hPa
08:06 14 °C 12.6 °C 91 % 6 km/h (9 km/h) 0 mm0 mm 20.2 °C 21.3 °C 21.6 °C 21.2 °C 59610 m 1024.9 hPa
08:00 13.6 °C 12.5 °C 93 % 5 km/h (7 km/h) 0 mm0 mm 20.2 °C 21.3 °C 21.6 °C 21.2 °C 60000 m 1024.8 hPa
07:54 13.2 °C 12.1 °C 93 % 6 km/h (8 km/h) 0 mm0 mm 20.2 °C 21.3 °C 21.6 °C 21.2 °C 60000 m 1024.8 hPa
07:48 13 °C 11.6 °C 91 % 7 km/h (9 km/h) 0 mm0 mm 20.3 °C 21.4 °C 21.6 °C 21.2 °C 60000 m 1024.7 hPa
07:42 12.9 °C 11.5 °C 91 % 8 km/h (9 km/h) 0 mm0 mm 20.3 °C 21.4 °C 21.6 °C 21.2 °C 60000 m 1024.7 hPa
07:36 12.8 °C 11.2 °C 90 % 9 km/h (10 km/h) 0 mm0 mm 20.3 °C 21.4 °C 21.6 °C 21.2 °C 60000 m 1024.6 hPa
07:30 13 °C 11.4 °C 90 % 9 km/h (11 km/h) 0 mm0 mm 20.4 °C 21.4 °C 21.6 °C 21.2 °C 60000 m 1024.5 hPa
07:24 13 °C 11.6 °C 91 % 8 km/h (10 km/h) 0 mm0 mm 20.4 °C 21.4 °C 21.6 °C 21.2 °C 60000 m 1024.3 hPa
07:18 12.9 °C 11.5 °C 91 % 8 km/h (9 km/h) 0 mm0 mm 20.4 °C 21.4 °C 21.5 °C 21.2 °C 60000 m 1024.3 hPa
07:12 12.8 °C 11.4 °C 91 % 8 km/h (9 km/h) 0 mm0 mm 20.4 °C 21.4 °C 21.6 °C 21.2 °C 60000 m 1024.3 hPa
07:06 12.8 °C 11.4 °C 91 % 8 km/h (9 km/h) 0 mm0 mm 20.5 °C 21.5 °C 21.5 °C 21.2 °C 60000 m 1024.3 hPa
07:00 12.7 °C 11.4 °C 92 % 7 km/h (8 km/h) 0 mm0 mm 20.5 °C 21.5 °C 21.5 °C 21.2 °C 60000 m 1024.4 hPa
06:54 12.6 °C 11.3 °C 92 % 6 km/h (8 km/h) 0 mm0 mm 20.5 °C 21.5 °C 21.6 °C 21.2 °C 60000 m 1024.4 hPa
06:48 12.5 °C 11.1 °C 91 % 7 km/h (8 km/h) 0 mm0 mm 20.6 °C 21.5 °C 21.6 °C 21.2 °C 60000 m 1024.4 hPa
06:42 12.3 °C 11.2 °C 93 % 6 km/h (8 km/h) 0 mm0 mm 20.6 °C 21.5 °C 21.6 °C 21.2 °C 57230 m 1024.3 hPa
06:36 12.2 °C 10.8 °C 91 % 6 km/h (8 km/h) 0 mm0 mm 20.6 °C 21.5 °C 21.6 °C 21.2 °C 56950 m 1024.3 hPa
06:30 12.2 °C 11.1 °C 93 % 8 km/h (9 km/h) 0 mm0 mm 20.6 °C 21.5 °C 21.6 °C 21.2 °C 60000 m 1024.3 hPa
06:24 12.1 °C 10.5 °C 90 % 8 km/h (9 km/h) 0 mm0 mm 20.6 °C 21.6 °C 21.6 °C 21.2 °C 60000 m 1024.1 hPa
06:18 12.5 °C 10.7 °C 89 % 8 km/h (9 km/h) 0 mm0 mm 20.7 °C 21.6 °C 21.6 °C 21.2 °C 57280 m 1024.2 hPa
06:12 12.7 °C 10.9 °C 89 % 9 km/h (9 km/h) 0 mm0 mm 20.7 °C 21.6 °C 21.6 °C 21.2 °C 57280 m 1024.1 hPa
06:06 13 °C 11.1 °C 88 % 8 km/h (9 km/h) 0 mm0 mm 20.7 °C 21.6 °C 21.6 °C 21.2 °C 60000 m 1024.1 hPa
06:00 13.2 °C 11.3 °C 88 % 8 km/h (9 km/h) 0 mm0 mm 20.7 °C 21.6 °C 21.5 °C 21.2 °C 60000 m 1023.9 hPa
05:54 13 °C 11.1 °C 88 % 8 km/h (9 km/h) 0 mm0 mm 20.8 °C 21.7 °C 21.6 °C 21.3 °C 60000 m 1023.9 hPa
05:48 12.7 °C 11.1 °C 90 % 6 km/h (8 km/h) 0 mm0 mm 20.8 °C 21.6 °C 21.6 °C 21.2 °C 60000 m 1024 hPa
05:42 12.6 °C 10.8 °C 89 % 6 km/h (7 km/h) 0 mm0 mm 20.8 °C 21.6 °C 21.5 °C 21.2 °C 60000 m 1024.1 hPa
05:36 12.8 °C 10.9 °C 88 % 7 km/h (8 km/h) 0 mm0 mm 20.8 °C 21.7 °C 21.6 °C 21.3 °C 58240 m 1024.1 hPa
05:30 13.1 °C 11.2 °C 88 % 8 km/h (9 km/h) 0 mm0 mm 20.9 °C 21.7 °C 21.5 °C 21.2 °C 60000 m 1024 hPa
05:24 13.3 °C 11.2 °C 87 % 9 km/h (9 km/h) 0 mm0 mm 20.9 °C 21.7 °C 21.6 °C 21.2 °C 60000 m 1024 hPa
05:18 13.2 °C 11.1 °C 87 % 9 km/h (9 km/h) 0 mm0 mm 20.9 °C 21.7 °C 21.5 °C 21.2 °C 60000 m 1024 hPa
05:12 13.1 °C 11 °C 87 % 9 km/h (9 km/h) 0 mm0 mm 20.9 °C 21.7 °C 21.5 °C 21.2 °C 60000 m 1024 hPa
05:06 13 °C 10.9 °C 87 % 8 km/h (9 km/h) 0 mm0 mm 20.9 °C 21.7 °C 21.5 °C 21.2 °C 60000 m 1024.1 hPa
05:00 13 °C 10.7 °C 86 % 7 km/h (9 km/h) 0 mm0 mm 21 °C 21.7 °C 21.5 °C 21.2 °C 60000 m 1024 hPa
04:54 13.4 °C 10.9 °C 85 % 7 km/h (8 km/h) 0 mm0 mm 21 °C 21.8 °C 21.5 °C 21.2 °C 60000 m 1024 hPa
04:48 13.7 °C 11 °C 84 % 8 km/h (9 km/h) 0 mm0 mm 21 °C 21.8 °C 21.5 °C 21.2 °C 60000 m 1023.9 hPa
04:42 13.7 °C 11.2 °C 85 % 9 km/h (10 km/h) 0 mm0 mm 21 °C 21.8 °C 21.6 °C 21.2 °C 60000 m 1023.8 hPa
04:36 13.7 °C 11 °C 84 % 9 km/h (10 km/h) 0 mm0 mm 21.1 °C 21.8 °C 21.5 °C 21.3 °C 60000 m 1023.9 hPa
04:30 13.8 °C 11.1 °C 84 % 9 km/h (10 km/h) 0 mm0 mm 21.1 °C 21.8 °C 21.5 °C 21.2 °C 60000 m 1023.9 hPa
04:24 13.8 °C 11.1 °C 84 % 10 km/h (12 km/h) 0 mm0 mm 21.2 °C 21.8 °C 21.5 °C 21.2 °C 60000 m 1023.9 hPa
04:18 13.9 °C 10.9 °C 82 % 9 km/h (12 km/h) 0 mm0 mm 21.2 °C 21.8 °C 21.5 °C 21.2 °C 60000 m 1023.8 hPa
04:12 14.2 °C 11 °C 81 % 7 km/h (9 km/h) 0 mm0 mm 21.2 °C 21.8 °C 21.5 °C 21.2 °C 60000 m 1023.8 hPa
04:06 14.3 °C 11.1 °C 81 % 7 km/h (8 km/h) 0 mm0 mm 21.2 °C 21.8 °C 21.5 °C 21.2 °C 60000 m 1023.6 hPa
04:00 14.3 °C 10.9 °C 80 % 7 km/h (8 km/h) 0 mm0 mm 21.2 °C 21.9 °C 21.5 °C 21.2 °C 60000 m 1023.6 hPa
03:54 14.3 °C 10.9 °C 80 % 6 km/h (8 km/h) 0 mm0 mm 21.3 °C 21.9 °C 21.5 °C 21.2 °C 60000 m 1023.6 hPa
03:48 14.4 °C 11 °C 80 % 5 km/h (6 km/h) 0 mm0 mm 21.3 °C 21.9 °C 21.5 °C 21.2 °C 60000 m 1023.6 hPa
03:42 14.3 °C 10.9 °C 80 % 6 km/h (8 km/h) 0 mm0 mm 21.3 °C 21.9 °C 21.5 °C 21.2 °C 60000 m 1023.6 hPa
03:36 14.5 °C 10.9 °C 79 % 8 km/h (9 km/h) 0 mm0 mm 21.3 °C 21.9 °C 21.5 °C 21.3 °C 60000 m 1023.6 hPa
03:30 14.4 °C 10.8 °C 79 % 9 km/h (10 km/h) 0 mm0 mm 21.4 °C 21.9 °C 21.5 °C 21.2 °C 60000 m 1023.6 hPa
03:24 14.8 °C 10.8 °C 77 % 9 km/h (10 km/h) 0 mm0 mm 21.4 °C 21.9 °C 21.5 °C 21.2 °C 60000 m 1023.5 hPa
03:18 15.2 °C 11 °C 76 % 8 km/h (10 km/h) 0 mm0 mm 21.4 °C 22 °C 21.5 °C 21.3 °C 60000 m 1023.5 hPa
03:12 15.2 °C 11.2 °C 77 % 9 km/h (12 km/h) 0 mm0 mm 21.4 °C 21.9 °C 21.5 °C 21.2 °C 60000 m 1023.5 hPa
03:06 15 °C 11 °C 77 % 11 km/h (13 km/h) 0 mm0 mm 21.5 °C 22 °C 21.5 °C 21.3 °C 60000 m 1023.5 hPa
03:00 14.9 °C 10.5 °C 75 % 9 km/h (13 km/h) 0 mm0 mm 21.5 °C 22 °C 21.5 °C 21.2 °C 60000 m 1023.6 hPa
02:54 15.2 °C 11 °C 76 % 6 km/h (9 km/h) 0 mm0 mm 21.5 °C 22 °C 21.5 °C 21.2 °C 60000 m 1023.6 hPa
02:48 15.3 °C 10.5 °C 73 % 6 km/h (7 km/h) 0 mm0 mm 21.5 °C 22 °C 21.5 °C 21.2 °C 60000 m 1023.6 hPa
02:42 15.4 °C 10.8 °C 74 % 6 km/h (7 km/h) 0 mm0 mm 21.6 °C 22 °C 21.5 °C 21.3 °C 60000 m 1023.6 hPa
02:36 15.4 °C 10.8 °C 74 % 5 km/h (6 km/h) 0 mm0 mm 21.6 °C 22.1 °C 21.5 °C 21.3 °C 60000 m 1023.5 hPa
02:30 15.4 °C 10.8 °C 74 % 4 km/h (5 km/h) 0 mm0 mm 21.6 °C 22 °C 21.5 °C 21.2 °C 60000 m 1023.5 hPa
02:24 15.6 °C 11 °C 74 % 4 km/h (5 km/h) 0 mm0 mm 21.7 °C 22.1 °C 21.5 °C 21.3 °C 60000 m 1023.5 hPa
02:18 15.7 °C 10.9 °C 73 % 4 km/h (7 km/h) 0 mm0 mm 21.7 °C 22.1 °C 21.5 °C 21.3 °C 60000 m 1023.4 hPa
02:12 15.9 °C 10.6 °C 71 % 6 km/h (7 km/h) 0 mm0 mm 21.7 °C 22.1 °C 21.5 °C 21.2 °C 60000 m 1023.5 hPa
02:06 16.2 °C 10.5 °C 69 % 6 km/h (8 km/h) 0 mm0 mm 21.7 °C 22.1 °C 21.5 °C 21.3 °C 60000 m 1023.5 hPa
02:00 16.2 °C 10.5 °C 69 % 6 km/h (8 km/h) 0 mm0 mm 21.8 °C 22.1 °C 21.5 °C 21.2 °C 60000 m 1023.5 hPa
01:54 15.9 °C 10.4 °C 70 % 6 km/h (8 km/h) 0 mm0 mm 21.8 °C 22.1 °C 21.5 °C 21.2 °C 60000 m 1023.5 hPa
01:48 15.7 °C 10.9 °C 73 % 6 km/h (8 km/h) 0 mm0 mm 21.8 °C 22.1 °C 21.4 °C 21.2 °C 60000 m 1023.5 hPa
01:42 15.7 °C 10.9 °C 73 % 5 km/h (8 km/h) 0 mm0 mm 21.8 °C 22.1 °C 21.5 °C 21.3 °C 60000 m 1023.6 hPa
01:36 16 °C 11.2 °C 73 % 3 km/h (5 km/h) 0 mm0 mm 21.9 °C 22.1 °C 21.5 °C 21.2 °C 60000 m 1023.6 hPa
01:30 16 °C 11.2 °C 73 % 0 km/h (3 km/h) 0 mm0 mm 21.9 °C 22.1 °C 21.4 °C 21.3 °C 60000 m 1023.5 hPa
01:24 15.8 °C 11.2 °C 74 % 2 km/h (4 km/h) 0 mm0 mm 21.9 °C 22.1 °C 21.4 °C 21.2 °C 60000 m 1023.5 hPa
01:18 15.8 °C 10.5 °C 71 % 3 km/h (4 km/h) 0 mm0 mm 21.9 °C 22.1 °C 21.4 °C 21.2 °C 60000 m 1023.5 hPa
01:12 15.5 °C 10.7 °C 73 % 5 km/h (8 km/h) 0 mm0 mm 22 °C 22.2 °C 21.4 °C 21.3 °C 60000 m 1023.6 hPa
01:06 15.5 °C 10.7 °C 73 % 6 km/h (8 km/h) 0 mm0 mm 22 °C 22.1 °C 21.4 °C 21.2 °C 60000 m 1023.7 hPa
01:00 16 °C 10.7 °C 71 % 5 km/h (7 km/h) 0 mm0 mm 22 °C 22.2 °C 21.5 °C 21.3 °C 60000 m 1023.5 hPa
00:54 15.9 °C 10.9 °C 72 % 5 km/h (7 km/h) 0 mm0 mm 22.1 °C 22.2 °C 21.5 °C 21.3 °C 60000 m 1023.5 hPa
00:48 15.8 °C 10.8 °C 72 % 6 km/h (7 km/h) 0 mm0 mm 22.1 °C 22.2 °C 21.4 °C 21.3 °C 60000 m 1023.5 hPa
00:42 16.1 °C 11 °C 72 % 5 km/h (6 km/h) 0 mm0 mm 22.1 °C 22.2 °C 21.4 °C 21.2 °C 60000 m 1023.4 hPa
00:36 16.4 °C 10.9 °C 70 % 5 km/h (6 km/h) 0 mm0 mm 22.1 °C 22.2 °C 21.4 °C 21.3 °C 60000 m 1023.4 hPa
00:30 16.7 °C 11 °C 69 % 4 km/h (5 km/h) 0 mm0 mm 22.2 °C 22.2 °C 21.4 °C 21.3 °C 60000 m 1023.4 hPa
00:24 16.9 °C 11 °C 68 % 5 km/h (5 km/h) 0 mm0 mm 22.2 °C 22.2 °C 21.4 °C 21.3 °C 60000 m 1023.3 hPa
00:18 17.1 °C 10.7 °C 66 % 5 km/h (6 km/h) 0 mm0 mm 22.2 °C 22.2 °C 21.4 °C 21.2 °C 60000 m 1023.2 hPa
00:12 17.5 °C 10.4 °C 63 % 4 km/h (6 km/h) 0 mm0 mm 22.2 °C 22.2 °C 21.4 °C 21.3 °C 60000 m 1023.2 hPa
00:06 17.8 °C 10.4 °C 62 % 3 km/h (4 km/h) 0 mm0 mm 22.2 °C 22.2 °C 21.4 °C 21.2 °C 60000 m 1023 hPa
00:00 17.6 °C 10.2 °C 62 % 3 km/h (4 km/h) 0 mm0 mm 22.2 °C 22.2 °C 21.4 °C 21.3 °C 60000 m 1023 hPa

Données via Météo-France

Relevés météo à Avord

Cette page rassemble les observations de la station de Avord : température, humidité, vent, précipitations et pression atmosphérique. Les graphiques facilitent le suivi de la journée, tandis que le tableau donne accès aux mesures horaires et infra-horaires disponibles.

Pour replacer ces mesures dans leur contexte, consultez la climatologie de Avord ainsi que ses normales et records. Retrouvez aussi la carte des observations météo en temps réel.